sensor_id;sensor_type;location;lat;lon;timestamp;pressure;altitude;pressure_sealevel;temperature;humidity
20630;BME280;17386;43.846;25.950;2022-10-16T00:01:13;102145.41;;;11.56;99.26
20630;BME280;17386;43.846;25.950;2022-10-16T00:03:40;102136.72;;;11.46;99.07
20630;BME280;17386;43.846;25.950;2022-10-16T00:06:06;102148.22;;;11.45;99.19
20630;BME280;17386;43.846;25.950;2022-10-16T00:08:32;102149.09;;;11.46;99.31
20630;BME280;17386;43.846;25.950;2022-10-16T00:11:04;102148.28;;;11.42;99.97
20630;BME280;17386;43.846;25.950;2022-10-16T00:13:31;102152.59;;;11.49;100.00
20630;BME280;17386;43.846;25.950;2022-10-16T00:15:58;102152.56;;;11.51;100.00
20630;BME280;17386;43.846;25.950;2022-10-16T00:18:25;102158.81;;;11.50;100.00
20630;BME280;17386;43.846;25.950;2022-10-16T00:20:51;102160.63;;;11.48;100.00
20630;BME280;17386;43.846;25.950;2022-10-16T00:23:16;102170.34;;;11.49;100.00
20630;BME280;17386;43.846;25.950;2022-10-16T00:25:42;102165.03;;;11.49;100.00
20630;BME280;17386;43.846;25.950;2022-10-16T00:28:07;102172.16;;;11.48;100.00
20630;BME280;17386;43.846;25.950;2022-10-16T00:30:33;102180.09;;;11.50;100.00
20630;BME280;17386;43.846;25.950;2022-10-16T00:32:59;102174.78;;;11.50;100.00
20630;BME280;17386;43.846;25.950;2022-10-16T00:35:24;102166.84;;;11.45;100.00
20630;BME280;17386;43.846;25.950;2022-10-16T00:37:50;102173.97;;;11.45;100.00
20630;BME280;17386;43.846;25.950;2022-10-16T00:40:16;102174.88;;;11.44;100.00
20630;BME280;17386;43.846;25.950;2022-10-16T00:42:41;102172.31;;;11.38;100.00
20630;BME280;17386;43.846;25.950;2022-10-16T00:45:08;102176.78;;;11.36;100.00
20630;BME280;17386;43.846;25.950;2022-10-16T00:47:37;102173.31;;;11.31;99.75
20630;BME280;17386;43.846;25.950;2022-10-16T00:50:24;102172.50;;;11.27;99.21
20630;BME280;17386;43.846;25.950;2022-10-16T00:52:52;102172.53;;;11.26;98.62
20630;BME280;17386;43.846;25.950;2022-10-16T00:55:18;102176.09;;;11.23;98.38
20630;BME280;17386;43.846;25.950;2022-10-16T00:57:45;102177.03;;;11.20;98.63
20630;BME280;17386;43.846;25.950;2022-10-16T01:00:14;102183.25;;;11.18;98.49
20630;BME280;17386;43.846;25.950;2022-10-16T01:02:41;102175.31;;;11.16;98.58
20630;BME280;17386;43.846;25.950;2022-10-16T01:05:06;102174.44;;;11.16;98.51
20630;BME280;17386;43.846;25.950;2022-10-16T01:07:56;102184.16;;;11.17;98.25
20630;BME280;17386;43.846;25.950;2022-10-16T01:16:01;102179.78;;;11.14;98.18
20630;BME280;17386;43.846;25.950;2022-10-16T01:18:52;102177.16;;;11.11;98.27
20630;BME280;17386;43.846;25.950;2022-10-16T01:21:25;102176.28;;;11.12;98.25
20630;BME280;17386;43.846;25.950;2022-10-16T01:27:14;102176.34;;;11.08;98.38
20630;BME280;17386;43.846;25.950;2022-10-16T01:35:45;102187.00;;;11.05;98.54
20630;BME280;17386;43.846;25.950;2022-10-16T01:37:53;102181.78;;;11.00;98.57
20630;BME280;17386;43.846;25.950;2022-10-16T01:40:20;102181.81;;;10.99;98.63
20630;BME280;17386;43.846;25.950;2022-10-16T01:42:55;102189.78;;;10.99;98.93
20630;BME280;17386;43.846;25.950;2022-10-16T01:45:22;102180.94;;;10.95;99.00
20630;BME280;17386;43.846;25.950;2022-10-16T01:47:49;102188.91;;;10.98;98.89
20630;BME280;17386;43.846;25.950;2022-10-16T01:50:18;102192.44;;;10.97;98.96
20630;BME280;17386;43.846;25.950;2022-10-16T01:52:48;102188.94;;;10.95;98.94
20630;BME280;17386;43.846;25.950;2022-10-16T01:55:18;102190.69;;;10.96;99.03
20630;BME280;17386;43.846;25.950;2022-10-16T01:57:47;102195.06;;;11.00;98.65
20630;BME280;17386;43.846;25.950;2022-10-16T02:00:15;102203.03;;;11.00;98.54
20630;BME280;17386;43.846;25.950;2022-10-16T02:02:45;102204.81;;;11.00;98.42
20630;BME280;17386;43.846;25.950;2022-10-16T02:05:18;102210.19;;;10.95;98.68
20630;BME280;17386;43.846;25.950;2022-10-16T02:07:45;102197.91;;;10.86;98.90
20630;BME280;17386;43.846;25.950;2022-10-16T02:10:11;102211.13;;;10.92;98.88
20630;BME280;17386;43.846;25.950;2022-10-16T02:12:39;102204.03;;;10.93;99.02
20630;BME280;17386;43.846;25.950;2022-10-16T02:15:07;102209.38;;;10.90;98.53
20630;BME280;17386;43.846;25.950;2022-10-16T02:17:34;102204.16;;;10.85;98.00
20630;BME280;17386;43.846;25.950;2022-10-16T02:20:00;102220.09;;;10.85;97.13
20630;BME280;17386;43.846;25.950;2022-10-16T02:22:34;102218.38;;;10.80;96.25
20630;BME280;17386;43.846;25.950;2022-10-16T02:25:15;102219.34;;;10.74;95.46
20630;BME280;17386;43.846;25.950;2022-10-16T02:27:57;102224.72;;;10.68;94.84
20630;BME280;17386;43.846;25.950;2022-10-16T02:30:45;102235.44;;;10.62;94.68
20630;BME280;17386;43.846;25.950;2022-10-16T02:33:14;102237.28;;;10.57;94.82
20630;BME280;17386;43.846;25.950;2022-10-16T02:35:41;102226.69;;;10.52;95.20
20630;BME280;17386;43.846;25.950;2022-10-16T02:38:09;102238.25;;;10.51;95.78
20630;BME280;17386;43.846;25.950;2022-10-16T02:40:36;102230.25;;;10.50;96.73
20630;BME280;17386;43.846;25.950;2022-10-16T02:43:03;102227.69;;;10.42;97.18
20630;BME280;17386;43.846;25.950;2022-10-16T02:45:29;102221.63;;;10.31;97.53
20630;BME280;17386;43.846;25.950;2022-10-16T02:47:54;102228.66;;;10.35;98.06
20630;BME280;17386;43.846;25.950;2022-10-16T02:50:20;102232.19;;;10.35;98.01
20630;BME280;17386;43.846;25.950;2022-10-16T02:52:45;102237.53;;;10.34;98.04
20630;BME280;17386;43.846;25.950;2022-10-16T02:55:11;102233.13;;;10.33;98.26
20630;BME280;17386;43.846;25.950;2022-10-16T02:57:36;102227.84;;;10.30;98.31
20630;BME280;17386;43.846;25.950;2022-10-16T03:00:04;102238.50;;;10.27;98.34
20630;BME280;17386;43.846;25.950;2022-10-16T03:02:30;102240.31;;;10.23;98.90
20630;BME280;17386;43.846;25.950;2022-10-16T03:04:55;102238.53;;;10.19;99.09
20630;BME280;17386;43.846;25.950;2022-10-16T03:07:21;102241.19;;;10.21;99.15
20630;BME280;17386;43.846;25.950;2022-10-16T03:09:46;102247.38;;;10.20;99.25
20630;BME280;17386;43.846;25.950;2022-10-16T03:12:11;102250.97;;;10.15;99.35
20630;BME280;17386;43.846;25.950;2022-10-16T03:14:37;102250.06;;;10.15;99.47
20630;BME280;17386;43.846;25.950;2022-10-16T03:17:02;102250.97;;;10.15;99.44
20630;BME280;17386;43.846;25.950;2022-10-16T03:19:28;102253.63;;;10.17;99.33
20630;BME280;17386;43.846;25.950;2022-10-16T03:21:53;102245.69;;;10.12;99.25
20630;BME280;17386;43.846;25.950;2022-10-16T03:24:18;102252.81;;;10.10;99.45
20630;BME280;17386;43.846;25.950;2022-10-16T03:26:44;102248.44;;;10.05;99.91
20630;BME280;17386;43.846;25.950;2022-10-16T03:29:09;102251.97;;;10.05;100.00
20630;BME280;17386;43.846;25.950;2022-10-16T03:31:35;102257.28;;;10.04;100.00
20630;BME280;17386;43.846;25.950;2022-10-16T03:34:00;102259.94;;;10.04;100.00
20630;BME280;17386;43.846;25.950;2022-10-16T03:36:25;102263.47;;;10.04;100.00
20630;BME280;17386;43.846;25.950;2022-10-16T03:38:51;102263.53;;;9.98;100.00
20630;BME280;17386;43.846;25.950;2022-10-16T03:41:16;102261.78;;;9.94;100.00
20630;BME280;17386;43.846;25.950;2022-10-16T03:43:42;102258.28;;;9.91;100.00
20630;BME280;17386;43.846;25.950;2022-10-16T03:46:07;102265.41;;;9.89;100.00
20630;BME280;17386;43.846;25.950;2022-10-16T03:48:33;102261.84;;;9.90;100.00
20630;BME280;17386;43.846;25.950;2022-10-16T03:50:58;102266.25;;;9.91;100.00
20630;BME280;17386;43.846;25.950;2022-10-16T03:53:24;102258.28;;;9.92;100.00
20630;BME280;17386;43.846;25.950;2022-10-16T03:55:49;102262.69;;;9.92;100.00
20630;BME280;17386;43.846;25.950;2022-10-16T03:58:15;102240.59;;;9.88;100.00
20630;BME280;17386;43.846;25.950;2022-10-16T04:00:45;102257.44;;;9.89;100.00
20630;BME280;17386;43.846;25.950;2022-10-16T04:03:11;102247.69;;;9.87;100.00
20630;BME280;17386;43.846;25.950;2022-10-16T04:05:37;102252.09;;;9.92;100.00
20630;BME280;17386;43.846;25.950;2022-10-16T04:08:03;102258.25;;;9.95;100.00
20630;BME280;17386;43.846;25.950;2022-10-16T04:10:28;102260.03;;;9.93;100.00
20630;BME280;17386;43.846;25.950;2022-10-16T04:12:54;102260.91;;;9.97;100.00
20630;BME280;17386;43.846;25.950;2022-10-16T04:15:23;102257.38;;;9.93;100.00
20630;BME280;17386;43.846;25.950;2022-10-16T04:17:49;102269.75;;;9.96;100.00
20630;BME280;17386;43.846;25.950;2022-10-16T04:20:15;102275.94;;;9.95;100.00
20630;BME280;17386;43.846;25.950;2022-10-16T04:22:40;102277.72;;;9.93;100.00
20630;BME280;17386;43.846;25.950;2022-10-16T04:25:06;102277.75;;;9.88;100.00
20630;BME280;17386;43.846;25.950;2022-10-16T04:27:31;102280.47;;;9.80;100.00
20630;BME280;17386;43.846;25.950;2022-10-16T04:29:57;102273.47;;;9.72;99.40
20630;BME280;17386;43.846;25.950;2022-10-16T04:32:23;102281.47;;;9.69;99.47
20630;BME280;17386;43.846;25.950;2022-10-16T04:34:49;102288.59;;;9.64;99.76
20630;BME280;17386;43.846;25.950;2022-10-16T04:37:14;102283.28;;;9.59;99.82
20630;BME280;17386;43.846;25.950;2022-10-16T04:39:39;102287.72;;;9.60;99.80
20630;BME280;17386;43.846;25.950;2022-10-16T04:42:05;102290.38;;;9.62;100.00
20630;BME280;17386;43.846;25.950;2022-10-16T04:44:30;102293.03;;;9.57;100.00
20630;BME280;17386;43.846;25.950;2022-10-16T04:46:55;102306.38;;;9.49;99.98
20630;BME280;17386;43.846;25.950;2022-10-16T04:49:21;102309.03;;;9.46;100.00
20630;BME280;17386;43.846;25.950;2022-10-16T04:51:46;102317.84;;;9.47;100.00
20630;BME280;17386;43.846;25.950;2022-10-16T04:54:12;102316.97;;;9.49;100.00
20630;BME280;17386;43.846;25.950;2022-10-16T04:56:37;102312.53;;;9.53;100.00
20630;BME280;17386;43.846;25.950;2022-10-16T04:59:09;102313.38;;;9.58;100.00
20630;BME280;17386;43.846;25.950;2022-10-16T05:01:34;102321.28;;;9.66;100.00
20630;BME280;17386;43.846;25.950;2022-10-16T05:04:00;102319.47;;;9.72;100.00
20630;BME280;17386;43.846;25.950;2022-10-16T05:06:26;102322.09;;;9.78;100.00
20630;BME280;17386;43.846;25.950;2022-10-16T05:08:52;102317.66;;;9.82;100.00
20630;BME280;17386;43.846;25.950;2022-10-16T05:11:17;102329.09;;;9.89;100.00
20630;BME280;17386;43.846;25.950;2022-10-16T05:13:42;102325.53;;;9.91;100.00
20630;BME280;17386;43.846;25.950;2022-10-16T05:16:08;102332.59;;;9.95;100.00
20630;BME280;17386;43.846;25.950;2022-10-16T05:18:33;102330.81;;;9.94;100.00
20630;BME280;17386;43.846;25.950;2022-10-16T05:20:58;102339.66;;;9.96;100.00
20630;BME280;17386;43.846;25.950;2022-10-16T05:23:24;102353.81;;;9.98;100.00
20630;BME280;17386;43.846;25.950;2022-10-16T05:25:56;102350.28;;;9.93;100.00
20630;BME280;17386;43.846;25.950;2022-10-16T05:28:24;102360.03;;;9.91;100.00
20630;BME280;17386;43.846;25.950;2022-10-16T05:30:49;102376.84;;;9.92;100.00
20630;BME280;17386;43.846;25.950;2022-10-16T05:33:15;102372.44;;;9.92;100.00
20630;BME280;17386;43.846;25.950;2022-10-16T05:35:40;102376.81;;;9.95;100.00
20630;BME280;17386;43.846;25.950;2022-10-16T05:38:06;102383.00;;;10.00;100.00
20630;BME280;17386;43.846;25.950;2022-10-16T05:40:31;102373.25;;;10.03;100.00
20630;BME280;17386;43.846;25.950;2022-10-16T05:42:57;102382.94;;;10.06;100.00
20630;BME280;17386;43.846;25.950;2022-10-16T05:45:22;102387.34;;;10.11;100.00
20630;BME280;17386;43.846;25.950;2022-10-16T05:47:48;102382.91;;;10.10;100.00
20630;BME280;17386;43.846;25.950;2022-10-16T05:50:13;102395.25;;;10.18;100.00
20630;BME280;17386;43.846;25.950;2022-10-16T05:52:38;102395.25;;;10.19;100.00
20630;BME280;17386;43.846;25.950;2022-10-16T05:55:04;102389.06;;;10.23;100.00
20630;BME280;17386;43.846;25.950;2022-10-16T05:57:30;102394.34;;;10.26;100.00
20630;BME280;17386;43.846;25.950;2022-10-16T05:59:55;102400.53;;;10.30;100.00
20630;BME280;17386;43.846;25.950;2022-10-16T06:02:21;102402.28;;;10.31;100.00
20630;BME280;17386;43.846;25.950;2022-10-16T06:04:46;102407.53;;;10.38;100.00
20630;BME280;17386;43.846;25.950;2022-10-16T06:07:12;102407.53;;;10.38;100.00
20630;BME280;17386;43.846;25.950;2022-10-16T06:09:37;102399.53;;;10.40;100.00
20630;BME280;17386;43.846;25.950;2022-10-16T06:12:03;102411.00;;;10.45;100.00
20630;BME280;17386;43.846;25.950;2022-10-16T06:14:28;102415.41;;;10.51;100.00
20630;BME280;17386;43.846;25.950;2022-10-16T06:16:54;102420.69;;;10.52;100.00
20630;BME280;17386;43.846;25.950;2022-10-16T06:19:19;102428.63;;;10.57;100.00
20630;BME280;17386;43.846;25.950;2022-10-16T06:21:44;102427.72;;;10.59;100.00
20630;BME280;17386;43.846;25.950;2022-10-16T06:24:10;102432.06;;;10.68;100.00
20630;BME280;17386;43.846;25.950;2022-10-16T06:26:37;102435.53;;;10.78;100.00
20630;BME280;17386;43.846;25.950;2022-10-16T06:29:02;102440.72;;;10.88;99.98
20630;BME280;17386;43.846;25.950;2022-10-16T06:31:28;102433.56;;;10.95;99.77
20630;BME280;17386;43.846;25.950;2022-10-16T06:33:56;102443.16;;;11.10;99.00
20630;BME280;17386;43.846;25.950;2022-10-16T06:36:23;102446.66;;;11.15;98.50
20630;BME280;17386;43.846;25.950;2022-10-16T06:38:49;102420.09;;;11.12;97.79
20630;BME280;17386;43.846;25.950;2022-10-16T06:41:16;102442.00;;;11.32;97.73
20630;BME280;17386;43.846;25.950;2022-10-16T06:43:42;102437.56;;;11.34;97.13
20630;BME280;17386;43.846;25.950;2022-10-16T06:46:12;102449.94;;;11.40;97.21
20630;BME280;17386;43.846;25.950;2022-10-16T06:48:37;102438.38;;;11.41;97.39
20630;BME280;17386;43.846;25.950;2022-10-16T06:51:17;102441.78;;;11.52;97.29
20630;BME280;17386;43.846;25.950;2022-10-16T06:53:45;102448.72;;;11.64;97.37
20630;BME280;17386;43.846;25.950;2022-10-16T06:56:11;102446.94;;;11.67;97.44
20630;BME280;17386;43.846;25.950;2022-10-16T06:58:37;102452.06;;;11.79;96.88
20630;BME280;17386;43.846;25.950;2022-10-16T07:01:04;102451.91;;;11.93;96.30
20630;BME280;17386;43.846;25.950;2022-10-16T07:03:29;102450.84;;;12.08;96.05
20630;BME280;17386;43.846;25.950;2022-10-16T07:05:55;102452.38;;;12.21;95.23
20630;BME280;17386;43.846;25.950;2022-10-16T07:08:21;102448.72;;;12.30;94.31
20630;BME280;17386;43.846;25.950;2022-10-16T07:10:47;102469.81;;;12.44;93.83
20630;BME280;17386;43.846;25.950;2022-10-16T07:13:12;102466.06;;;12.55;92.97
20630;BME280;17386;43.846;25.950;2022-10-16T07:15:39;102462.41;;;12.61;92.06
20630;BME280;17386;43.846;25.950;2022-10-16T07:18:05;102458.84;;;12.64;91.66
20630;BME280;17386;43.846;25.950;2022-10-16T07:20:30;102454.28;;;12.69;92.07
20630;BME280;17386;43.846;25.950;2022-10-16T07:22:55;102462.91;;;12.83;91.83
20630;BME280;17386;43.846;25.950;2022-10-16T07:25:21;102460.09;;;12.92;91.54
20630;BME280;17386;43.846;25.950;2022-10-16T07:27:46;102466.91;;;13.08;90.64
20630;BME280;17386;43.846;25.950;2022-10-16T07:30:12;102467.63;;;13.18;89.89
20630;BME280;17386;43.846;25.950;2022-10-16T07:32:37;102462.16;;;13.27;89.12
20630;BME280;17386;43.846;25.950;2022-10-16T07:35:03;102463.81;;;13.33;88.84
20630;BME280;17386;43.846;25.950;2022-10-16T07:37:29;102464.47;;;13.44;88.35
20630;BME280;17386;43.846;25.950;2022-10-16T07:39:54;102476.81;;;13.50;88.03
20630;BME280;17386;43.846;25.950;2022-10-16T07:42:19;102464.44;;;13.47;87.23
20630;BME280;17386;43.846;25.950;2022-10-16T07:44:45;102463.44;;;13.53;87.71
20630;BME280;17386;43.846;25.950;2022-10-16T07:47:10;102462.47;;;13.55;87.34
20630;BME280;17386;43.846;25.950;2022-10-16T07:49:36;102460.59;;;13.60;86.62
20630;BME280;17386;43.846;25.950;2022-10-16T07:52:01;102476.41;;;13.69;86.02
20630;BME280;17386;43.846;25.950;2022-10-16T07:54:27;102470.94;;;13.76;85.86
20630;BME280;17386;43.846;25.950;2022-10-16T07:56:52;102471.53;;;13.90;85.88
20630;BME280;17386;43.846;25.950;2022-10-16T07:59:17;102473.97;;;14.01;84.93
20630;BME280;17386;43.846;25.950;2022-10-16T08:01:43;102470.13;;;14.12;83.60
20630;BME280;17386;43.846;25.950;2022-10-16T08:04:10;102479.53;;;14.30;83.42
20630;BME280;17386;43.846;25.950;2022-10-16T08:06:40;102479.19;;;14.44;82.38
20630;BME280;17386;43.846;25.950;2022-10-16T08:09:07;102479.72;;;14.60;81.41
20630;BME280;17386;43.846;25.950;2022-10-16T08:11:33;102481.47;;;14.62;81.31
20630;BME280;17386;43.846;25.950;2022-10-16T08:13:58;102488.22;;;14.77;80.71
20630;BME280;17386;43.846;25.950;2022-10-16T08:16:24;102485.28;;;14.86;79.55
20630;BME280;17386;43.846;25.950;2022-10-16T08:18:50;102482.31;;;14.98;78.46
20630;BME280;17386;43.846;25.950;2022-10-16T08:21:19;102480.13;;;15.13;77.80
20630;BME280;17386;43.846;25.950;2022-10-16T08:23:45;102486.81;;;15.29;76.81
20630;BME280;17386;43.846;25.950;2022-10-16T08:26:11;102492.72;;;15.42;74.22
20630;BME280;17386;43.846;25.950;2022-10-16T08:28:37;102495.16;;;15.49;73.47
20630;BME280;17386;43.846;25.950;2022-10-16T08:31:11;102484.06;;;15.65;74.34
20630;BME280;17386;43.846;25.950;2022-10-16T08:33:38;102481.00;;;15.78;74.33
20630;BME280;17386;43.846;25.950;2022-10-16T08:36:05;102484.72;;;16.02;73.80
20630;BME280;17386;43.846;25.950;2022-10-16T08:38:30;102500.94;;;16.27;70.07
20630;BME280;17386;43.846;25.950;2022-10-16T08:49:33;102494.59;;;16.84;70.49
20630;BME280;17386;43.846;25.950;2022-10-16T08:51:59;102490.50;;;16.99;71.14
20630;BME280;17386;43.846;25.950;2022-10-16T08:54:32;102494.91;;;17.27;69.89
20630;BME280;17386;43.846;25.950;2022-10-16T08:57:11;102498.16;;;17.36;67.71
20630;BME280;17386;43.846;25.950;2022-10-16T08:59:38;102495.34;;;17.39;68.63
20630;BME280;17386;43.846;25.950;2022-10-16T09:02:37;102504.72;;;17.53;67.34
20630;BME280;17386;43.846;25.950;2022-10-16T09:20:59;102492.97;;;17.80;65.22
20630;BME280;17386;43.846;25.950;2022-10-16T09:23:28;102488.81;;;17.71;65.18
20630;BME280;17386;43.846;25.950;2022-10-16T09:25:55;102488.44;;;17.57;65.74
20630;BME280;17386;43.846;25.950;2022-10-16T09:28:23;102497.03;;;17.42;64.43
20630;BME280;17386;43.846;25.950;2022-10-16T09:30:48;102486.63;;;17.33;66.03
20630;BME280;17386;43.846;25.950;2022-10-16T09:33:17;102488.59;;;17.53;65.84
20630;BME280;17386;43.846;25.950;2022-10-16T09:35:44;102492.56;;;17.66;63.53
20630;BME280;17386;43.846;25.950;2022-10-16T09:38:25;102485.31;;;17.93;63.69
20630;BME280;17386;43.846;25.950;2022-10-16T09:40:50;102487.16;;;18.14;62.55
20630;BME280;17386;43.846;25.950;2022-10-16T09:46:24;102470.97;;;19.02;58.71
20630;BME280;17386;43.846;25.950;2022-10-16T09:48:51;102466.63;;;19.38;57.66
20630;BME280;17386;43.846;25.950;2022-10-16T09:51:29;102467.22;;;19.65;56.53
20630;BME280;17386;43.846;25.950;2022-10-16T09:54:00;102465.53;;;19.82;54.84
20630;BME280;17386;43.846;25.950;2022-10-16T09:56:31;102461.03;;;20.01;54.88
20630;BME280;17386;43.846;25.950;2022-10-16T09:59:13;102443.41;;;20.30;53.03
20630;BME280;17386;43.846;25.950;2022-10-16T10:01:41;102447.19;;;20.45;51.46
20630;BME280;17386;43.846;25.950;2022-10-16T10:04:08;102447.00;;;20.67;51.23
20630;BME280;17386;43.846;25.950;2022-10-16T10:06:53;102446.84;;;20.70;50.20
20630;BME280;17386;43.846;25.950;2022-10-16T10:11:54;102445.81;;;20.55;50.04
20630;BME280;17386;43.846;25.950;2022-10-16T10:14:27;102441.31;;;20.73;49.01
20630;BME280;17386;43.846;25.950;2022-10-16T10:19:29;102442.72;;;20.97;48.86
20630;BME280;17386;43.846;25.950;2022-10-16T10:21:55;102444.03;;;21.06;48.40
20630;BME280;17386;43.846;25.950;2022-10-16T10:24:20;102433.03;;;21.26;47.41
20630;BME280;17386;43.846;25.950;2022-10-16T10:27:05;102443.19;;;21.56;46.61
20630;BME280;17386;43.846;25.950;2022-10-16T10:33:30;102439.78;;;21.52;45.90
20630;BME280;17386;43.846;25.950;2022-10-16T10:46:20;102429.09;;;20.99;46.83
20630;BME280;17386;43.846;25.950;2022-10-16T10:52:49;102425.72;;;20.95;46.79
20630;BME280;17386;43.846;25.950;2022-10-16T10:57:29;102413.84;;;20.98;47.08
20630;BME280;17386;43.846;25.950;2022-10-16T11:05:37;102413.13;;;21.12;45.26
20630;BME280;17386;43.846;25.950;2022-10-16T11:08:13;102417.59;;;20.95;44.26
20630;BME280;17386;43.846;25.950;2022-10-16T11:11:03;102420.22;;;20.62;45.13
20630;BME280;17386;43.846;25.950;2022-10-16T11:16:15;102416.69;;;21.63;43.97
20630;BME280;17386;43.846;25.950;2022-10-16T11:21:42;102414.16;;;21.75;43.30
20630;BME280;17386;43.846;25.950;2022-10-16T11:24:37;102416.44;;;21.83;42.95
20630;BME280;17386;43.846;25.950;2022-10-16T11:27:09;102412.81;;;21.35;43.82
20630;BME280;17386;43.846;25.950;2022-10-16T11:29:45;102413.59;;;21.53;42.45
20630;BME280;17386;43.846;25.950;2022-10-16T11:32:25;102408.81;;;21.25;41.83
20630;BME280;17386;43.846;25.950;2022-10-16T11:34:57;102405.91;;;21.29;43.42
20630;BME280;17386;43.846;25.950;2022-10-16T11:37:36;102397.38;;;21.37;43.79
20630;BME280;17386;43.846;25.950;2022-10-16T11:40:28;102402.09;;;21.49;44.02
20630;BME280;17386;43.846;25.950;2022-10-16T11:42:58;102408.72;;;21.26;44.42
20630;BME280;17386;43.846;25.950;2022-10-16T11:45:36;102400.31;;;21.33;43.97
20630;BME280;17386;43.846;25.950;2022-10-16T11:51:11;102396.44;;;21.03;44.89
20630;BME280;17386;43.846;25.950;2022-10-16T11:56:12;102392.66;;;20.90;45.17
20630;BME280;17386;43.846;25.950;2022-10-16T11:59:00;102382.03;;;20.53;45.77
20630;BME280;17386;43.846;25.950;2022-10-16T12:01:45;102385.47;;;20.37;46.42
20630;BME280;17386;43.846;25.950;2022-10-16T12:04:23;102391.50;;;20.42;46.44
20630;BME280;17386;43.846;25.950;2022-10-16T12:07:09;102400.09;;;20.33;47.09
20630;BME280;17386;43.846;25.950;2022-10-16T12:09:38;102398.66;;;20.26;47.17
20630;BME280;17386;43.846;25.950;2022-10-16T12:12:22;102398.28;;;20.15;47.63
20630;BME280;17386;43.846;25.950;2022-10-16T12:14:59;102407.09;;;19.82;47.69
20630;BME280;17386;43.846;25.950;2022-10-16T12:17:42;102398.22;;;19.41;49.00
20630;BME280;17386;43.846;25.950;2022-10-16T12:28:06;102408.00;;;18.84;50.66
20630;BME280;17386;43.846;25.950;2022-10-16T12:30:34;102410.84;;;18.81;51.18
20630;BME280;17386;43.846;25.950;2022-10-16T12:33:06;102417.84;;;18.63;51.54
20630;BME280;17386;43.846;25.950;2022-10-16T12:35:45;102415.88;;;18.46;51.81
20630;BME280;17386;43.846;25.950;2022-10-16T12:40:46;102406.31;;;18.39;52.60
20630;BME280;17386;43.846;25.950;2022-10-16T12:48:30;102405.41;;;18.39;52.58
20630;BME280;17386;43.846;25.950;2022-10-16T12:50:56;102410.75;;;18.40;52.51
20630;BME280;17386;43.846;25.950;2022-10-16T12:53:23;102413.25;;;18.45;52.65
20630;BME280;17386;43.846;25.950;2022-10-16T12:55:55;102412.50;;;18.41;53.14
20630;BME280;17386;43.846;25.950;2022-10-16T13:06:40;102423.91;;;18.48;52.40
20630;BME280;17386;43.846;25.950;2022-10-16T13:23:01;102412.50;;;18.41;51.44
20630;BME280;17386;43.846;25.950;2022-10-16T13:28:17;102423.44;;;18.37;51.37
20630;BME280;17386;43.846;25.950;2022-10-16T13:30:52;102419.88;;;18.36;51.33
20630;BME280;17386;43.846;25.950;2022-10-16T13:33:37;102416.31;;;18.36;51.43
20630;BME280;17386;43.846;25.950;2022-10-16T13:36:05;102420.69;;;18.38;51.31
20630;BME280;17386;43.846;25.950;2022-10-16T13:38:35;102418.63;;;18.45;51.80
20630;BME280;17386;43.846;25.950;2022-10-16T13:41:03;102415.81;;;18.48;51.12
20630;BME280;17386;43.846;25.950;2022-10-16T13:43:39;102404.97;;;18.49;51.00
20630;BME280;17386;43.846;25.950;2022-10-16T13:48:39;102413.38;;;18.42;50.58
20630;BME280;17386;43.846;25.950;2022-10-16T13:51:11;102419.81;;;18.38;50.87
20630;BME280;17386;43.846;25.950;2022-10-16T13:53:37;102430.84;;;18.31;51.36
20630;BME280;17386;43.846;25.950;2022-10-16T13:56:05;102429.09;;;18.30;50.98
20630;BME280;17386;43.846;25.950;2022-10-16T13:58:31;102415.88;;;18.24;51.30
20630;BME280;17386;43.846;25.950;2022-10-16T14:03:27;102429.97;;;18.31;51.21
20630;BME280;17386;43.846;25.950;2022-10-16T14:05:55;102438.00;;;18.33;51.41
20630;BME280;17386;43.846;25.950;2022-10-16T14:08:23;102433.81;;;18.25;51.40
20630;BME280;17386;43.846;25.950;2022-10-16T14:10:52;102434.72;;;18.24;51.23
20630;BME280;17386;43.846;25.950;2022-10-16T14:13:47;102432.00;;;18.26;51.35
20630;BME280;17386;43.846;25.950;2022-10-16T14:16:20;102442.69;;;18.27;50.81
20630;BME280;17386;43.846;25.950;2022-10-16T14:18:54;102433.22;;;18.17;51.01
20630;BME280;17386;43.846;25.950;2022-10-16T14:21:21;102447.28;;;18.24;50.95
20630;BME280;17386;43.846;25.950;2022-10-16T14:23:46;102450.94;;;18.23;50.33
20630;BME280;17386;43.846;25.950;2022-10-16T14:26:14;102458.25;;;18.19;49.83
20630;BME280;17386;43.846;25.950;2022-10-16T14:28:41;102448.63;;;18.14;50.27
20630;BME280;17386;43.846;25.950;2022-10-16T14:31:34;102446.88;;;18.13;50.34
20630;BME280;17386;43.846;25.950;2022-10-16T14:34:01;102445.16;;;18.10;50.48
20630;BME280;17386;43.846;25.950;2022-10-16T14:36:27;102443.41;;;18.09;50.75
20630;BME280;17386;43.846;25.950;2022-10-16T14:39:00;102439.03;;;18.07;50.77
20630;BME280;17386;43.846;25.950;2022-10-16T14:41:27;102448.94;;;18.06;50.74
20630;BME280;17386;43.846;25.950;2022-10-16T14:43:58;102454.56;;;18.00;50.62
20630;BME280;17386;43.846;25.950;2022-10-16T14:46:41;102451.94;;;17.98;50.01
20630;BME280;17386;43.846;25.950;2022-10-16T14:51:40;102453.09;;;17.91;50.54
20630;BME280;17386;43.846;25.950;2022-10-16T14:54:11;102446.97;;;17.88;50.59
20630;BME280;17386;43.846;25.950;2022-10-16T14:59:33;102445.50;;;17.79;50.62
20630;BME280;17386;43.846;25.950;2022-10-16T15:02:06;102453.75;;;17.74;51.12